createdAt,value
2018-11-29T00:00:31.434Z,26.35
2018-11-29T00:03:00.093Z,22.32
2018-11-29T00:05:34.503Z,22.73
2018-11-29T00:08:09.199Z,23.75
2018-11-29T00:10:37.841Z,22.70
2018-11-29T00:13:06.512Z,23.90
2018-11-29T00:15:35.268Z,21.97
2018-11-29T00:18:03.942Z,21.25
2018-11-29T00:20:33.121Z,25.43
2018-11-29T00:23:01.812Z,23.57
2018-11-29T00:25:30.474Z,22.45
2018-11-29T00:27:59.137Z,22.37
2018-11-29T00:30:27.800Z,25.35
2018-11-29T00:32:56.476Z,23.47
2018-11-29T00:35:25.152Z,25.02
2018-11-29T00:37:53.808Z,22.90
2018-11-29T00:40:23.207Z,25.00
2018-11-29T00:42:52.203Z,20.52
2018-11-29T00:45:21.720Z,21.90
2018-11-29T00:47:50.718Z,20.97
2018-11-29T00:50:19.899Z,22.65
2018-11-29T00:52:49.415Z,20.88
2018-11-29T00:55:21.070Z,24.60
2018-11-29T00:57:49.753Z,20.88
2018-11-29T01:00:20.179Z,21.05
2018-11-29T01:02:49.073Z,23.87
2018-11-29T01:05:17.744Z,24.65
2018-11-29T01:07:46.442Z,22.85
2018-11-29T01:10:15.918Z,21.60
2018-11-29T01:12:45.042Z,22.00
2018-11-29T01:15:15.671Z,24.15
2018-11-29T01:17:45.075Z,25.57
2018-11-29T01:20:14.562Z,21.27
2018-11-29T01:22:43.234Z,20.43
2018-11-29T01:25:12.674Z,18.23
2018-11-29T01:27:41.856Z,21.20
2018-11-29T01:30:13.413Z,23.15
2018-11-29T01:32:42.093Z,20.27
2018-11-29T01:35:11.731Z,27.13
2018-11-29T01:37:40.374Z,20.52
2018-11-29T01:40:17.500Z,25.23
2018-11-29T01:42:50.214Z,23.62
2018-11-29T01:45:18.870Z,23.38
2018-11-29T01:47:47.545Z,23.77
2018-11-29T01:50:16.328Z,22.30
2018-11-29T01:52:44.975Z,19.25
2018-11-29T01:55:13.662Z,24.77
2018-11-29T01:57:42.352Z,21.48
2018-11-29T02:00:14.252Z,24.80
2018-11-29T02:02:43.338Z,23.10
2018-11-29T02:05:12.109Z,22.82
2018-11-29T02:07:40.773Z,18.05
2018-11-29T02:10:16.878Z,22.15
2018-11-29T02:12:45.579Z,25.77
2018-11-29T02:15:14.232Z,19.37
2018-11-29T02:17:42.897Z,21.73
2018-11-29T02:20:13.148Z,21.95
2018-11-29T02:22:41.847Z,22.22
2018-11-29T02:25:10.530Z,25.43
2018-11-29T02:27:39.318Z,27.67
2018-11-29T02:30:19.872Z,23.50
2018-11-29T02:32:48.587Z,22.87
2018-11-29T02:35:17.328Z,25.52
2018-11-29T02:37:46.015Z,25.82
2018-11-29T02:40:15.648Z,26.17
2018-11-29T02:42:44.731Z,23.73
2018-11-29T02:45:16.493Z,25.25
2018-11-29T02:47:45.184Z,26.50
2018-11-29T02:50:13.877Z,26.12
2018-11-29T02:52:42.570Z,25.65
2018-11-29T02:55:11.974Z,25.92
2018-11-29T02:57:41.060Z,28.05
2018-11-29T03:00:17.338Z,27.27
2018-11-29T03:02:46.063Z,23.70
2018-11-29T03:05:15.183Z,25.40
2018-11-29T03:07:43.896Z,23.07
2018-11-29T03:10:13.682Z,26.45
2018-11-29T03:12:42.783Z,24.35
2018-11-29T03:15:13.537Z,23.77
2018-11-29T03:17:42.405Z,28.10
2018-11-29T03:20:12.827Z,26.33
2018-11-29T03:22:41.529Z,26.12
2018-11-29T03:25:12.455Z,27.00
2018-11-29T03:27:41.152Z,24.07
2018-11-29T03:30:12.902Z,24.80
2018-11-29T03:32:41.604Z,25.55
2018-11-29T03:35:11.177Z,26.45
2018-11-29T03:37:39.864Z,27.70
2018-11-29T03:40:11.829Z,30.57
2018-11-29T03:42:40.505Z,27.45
2018-11-29T03:45:11.248Z,31.07
2018-11-29T03:47:39.913Z,24.67
2018-11-29T03:50:10.050Z,27.62
2018-11-29T03:52:38.739Z,27.60
2018-11-29T03:55:08.546Z,26.33
2018-11-29T03:57:37.537Z,26.20
2018-11-29T04:00:10.932Z,23.40
2018-11-29T04:02:39.610Z,22.65
2018-11-29T04:05:08.289Z,24.57
2018-11-29T04:07:36.942Z,24.98
2018-11-29T04:10:07.544Z,26.10
2018-11-29T04:12:36.202Z,25.27
2018-11-29T04:15:05.293Z,26.65
2018-11-29T04:17:40.413Z,28.12
2018-11-29T04:20:02.613Z,27.73
2018-11-29T04:22:31.300Z,25.32
2018-11-29T04:24:59.981Z,26.85
2018-11-29T04:27:28.634Z,26.55
2018-11-29T04:29:57.298Z,26.17
2018-11-29T04:32:25.960Z,28.80
2018-11-29T04:34:54.619Z,27.37
2018-11-29T04:37:23.323Z,25.37
2018-11-29T04:39:52.045Z,26.52
2018-11-29T04:42:20.693Z,23.87
2018-11-29T04:44:49.373Z,26.87
2018-11-29T04:47:18.054Z,20.72
2018-11-29T04:49:46.749Z,21.55
2018-11-29T04:52:15.430Z,28.02
2018-11-29T04:54:44.115Z,25.62
2018-11-29T04:57:12.785Z,27.07
2018-11-29T04:59:41.464Z,26.60
2018-11-29T05:02:10.131Z,25.80
2018-11-29T05:04:38.822Z,26.20
2018-11-29T05:07:07.499Z,24.72
2018-11-29T05:09:36.188Z,24.30
2018-11-29T05:12:04.947Z,23.55
2018-11-29T05:14:33.674Z,22.87
2018-11-29T05:17:02.350Z,25.05
2018-11-29T05:19:31.040Z,25.90
2018-11-29T05:21:59.722Z,26.68
2018-11-29T05:24:28.410Z,29.35
2018-11-29T05:26:57.086Z,25.02
2018-11-29T05:29:25.856Z,24.35
2018-11-29T05:31:54.638Z,25.15
2018-11-29T05:34:23.308Z,28.27
2018-11-29T05:36:51.998Z,26.68
2018-11-29T05:39:20.665Z,23.67
2018-11-29T05:41:49.330Z,27.77
2018-11-29T05:44:18.004Z,24.45
2018-11-29T05:46:46.683Z,25.88
2018-11-29T05:49:15.354Z,23.75
2018-11-29T05:51:44.021Z,25.00
2018-11-29T05:54:12.698Z,24.40
2018-11-29T05:56:41.400Z,27.37
2018-11-29T05:59:10.111Z,26.45
2018-11-29T06:01:40.887Z,24.87
2018-11-29T06:04:09.573Z,26.75
2018-11-29T06:06:38.254Z,23.98
2018-11-29T06:09:08.730Z,25.50
2018-11-29T06:11:38.425Z,22.15
2018-11-29T06:14:07.821Z,25.43
2018-11-29T06:16:37.261Z,23.75
2018-11-29T06:19:07.357Z,26.68
2018-11-29T06:21:36.041Z,23.77
2018-11-29T06:24:04.833Z,28.75
2018-11-29T06:26:33.512Z,23.20
2018-11-29T06:29:02.193Z,25.45
2018-11-29T06:31:30.866Z,25.68
2018-11-29T06:33:59.555Z,25.70
2018-11-29T06:36:28.322Z,26.12
2018-11-29T06:38:56.989Z,24.92
2018-11-29T06:41:25.698Z,29.50
2018-11-29T06:43:54.396Z,26.85
2018-11-29T06:46:23.061Z,25.25
2018-11-29T06:48:51.723Z,27.85
2018-11-29T06:51:20.386Z,24.10
2018-11-29T06:53:54.714Z,23.92
2018-11-29T06:56:23.369Z,24.98
2018-11-29T06:58:52.034Z,25.12
2018-11-29T07:01:20.707Z,22.40
2018-11-29T07:03:49.404Z,23.00
2018-11-29T07:06:18.095Z,21.60
2018-11-29T07:08:46.763Z,23.90
2018-11-29T07:11:15.439Z,25.35
2018-11-29T07:13:44.109Z,23.00
2018-11-29T07:16:12.786Z,22.37
2018-11-29T07:18:41.442Z,24.05
2018-11-29T07:21:21.632Z,21.95
2018-11-29T07:23:50.282Z,23.80
2018-11-29T07:26:18.966Z,25.95
2018-11-29T07:28:47.634Z,22.55
2018-11-29T07:31:16.302Z,23.83
2018-11-29T07:33:44.978Z,23.62
2018-11-29T07:36:13.671Z,23.65
2018-11-29T07:38:42.345Z,26.42
2018-11-29T07:41:11.014Z,25.97
2018-11-29T07:43:39.906Z,23.45
2018-11-29T07:46:08.575Z,25.37
2018-11-29T07:48:37.240Z,26.73
2018-11-29T07:51:05.912Z,21.85
2018-11-29T07:53:34.573Z,22.62
2018-11-29T07:56:03.237Z,25.80
2018-11-29T07:58:31.901Z,24.07
2018-11-29T08:01:00.571Z,25.90
2018-11-29T08:03:29.241Z,23.42
2018-11-29T08:05:57.927Z,25.02
2018-11-29T08:08:26.770Z,21.80
2018-11-29T08:10:55.446Z,24.50
2018-11-29T08:13:24.126Z,26.00
2018-11-29T08:15:52.794Z,25.35
2018-11-29T08:18:21.465Z,20.55
2018-11-29T08:20:50.143Z,22.20
2018-11-29T08:23:18.821Z,21.85
2018-11-29T08:25:47.491Z,21.90
2018-11-29T08:28:16.153Z,21.48
2018-11-29T08:30:44.848Z,21.68
2018-11-29T08:33:13.526Z,19.32
2018-11-29T08:35:42.247Z,20.62
2018-11-29T08:38:10.913Z,19.40
2018-11-29T08:40:39.592Z,21.27
2018-11-29T08:43:08.249Z,20.20
2018-11-29T08:45:36.923Z,21.62
2018-11-29T08:48:06.557Z,20.57
2018-11-29T08:50:35.246Z,19.27
2018-11-29T08:53:04.039Z,19.57
2018-11-29T08:55:32.729Z,19.55
2018-11-29T08:58:01.391Z,20.77
2018-11-29T09:00:30.063Z,21.42
2018-11-29T09:02:58.748Z,19.95
2018-11-29T09:05:27.413Z,20.23
2018-11-29T09:07:56.076Z,21.45
2018-11-29T09:10:31.408Z,21.75
2018-11-29T09:12:53.497Z,21.70
2018-11-29T09:15:22.175Z,21.68
2018-11-29T09:17:50.857Z,23.62
2018-11-29T09:20:20.490Z,18.90
2018-11-29T09:22:49.168Z,21.20
2018-11-29T09:25:19.902Z,21.00
2018-11-29T09:27:48.669Z,21.55
2018-11-29T09:30:22.382Z,18.65
2018-11-29T09:32:52.202Z,19.35
2018-11-29T09:35:20.892Z,19.05
2018-11-29T09:37:49.569Z,17.95
2018-11-29T09:40:18.711Z,17.75
2018-11-29T09:42:47.446Z,20.08
2018-11-29T09:45:20.160Z,19.33
2018-11-29T09:47:49.961Z,17.73
2018-11-29T09:50:18.822Z,19.48
2018-11-29T09:52:47.482Z,16.20
2018-11-29T09:55:16.934Z,16.75
2018-11-29T09:57:46.533Z,18.27
2018-11-29T10:00:27.880Z,17.98
2018-11-29T10:03:00.902Z,16.35
2018-11-29T10:05:29.557Z,16.42
2018-11-29T10:07:58.223Z,19.00
2018-11-29T10:10:26.905Z,16.73
2018-11-29T10:12:55.851Z,14.25
2018-11-29T10:15:24.514Z,17.32
2018-11-29T10:17:53.212Z,17.32
2018-11-29T10:20:21.886Z,19.05
2018-11-29T10:22:50.573Z,19.17
2018-11-29T10:25:19.254Z,15.15
2018-11-29T10:27:49.703Z,15.83
2018-11-29T10:30:21.562Z,15.18
2018-11-29T10:32:50.225Z,16.52
2018-11-29T10:35:18.894Z,15.78
2018-11-29T10:37:47.574Z,14.73
2018-11-29T10:40:16.242Z,15.08
2018-11-29T10:42:44.917Z,15.08
2018-11-29T10:45:16.010Z,13.53
2018-11-29T10:47:52.017Z,14.05
2018-11-29T10:50:14.850Z,15.85
2018-11-29T10:52:43.529Z,12.90
2018-11-29T10:55:14.339Z,13.70
2018-11-29T10:57:43.063Z,15.25
2018-11-29T11:00:31.969Z,13.60
2018-11-29T11:03:22.170Z,15.18
2018-11-29T11:05:52.001Z,13.03
2018-11-29T11:08:21.088Z,13.28
2018-11-29T11:10:49.977Z,14.10
2018-11-29T11:13:18.705Z,13.28
2018-11-29T11:15:47.316Z,12.50
2018-11-29T11:18:16.646Z,12.15
2018-11-29T11:20:45.314Z,13.45
2018-11-29T11:23:14.006Z,13.13
2018-11-29T11:25:42.673Z,14.00
2018-11-29T11:28:11.341Z,12.25
2018-11-29T11:30:41.806Z,14.73
2018-11-29T11:33:10.486Z,12.28
2018-11-29T11:35:39.154Z,13.30
2018-11-29T11:38:07.849Z,11.53
2018-11-29T11:40:36.514Z,12.20
2018-11-29T11:43:05.891Z,13.28
2018-11-29T11:45:34.550Z,13.70
2018-11-29T11:48:03.730Z,11.48
2018-11-29T11:50:32.034Z,11.48
2018-11-29T11:53:00.705Z,12.25
2018-11-29T11:55:30.306Z,13.27
2018-11-29T11:57:58.069Z,10.63
2018-11-29T12:00:27.875Z,11.15
2018-11-29T12:03:10.450Z,10.18
2018-11-29T12:05:39.121Z,12.05
2018-11-29T12:08:08.022Z,12.53
2018-11-29T12:10:37.355Z,11.12
2018-11-29T12:13:06.974Z,12.90
2018-11-29T12:15:36.562Z,11.57
2018-11-29T12:18:06.790Z,11.97
2018-11-29T12:20:35.470Z,10.58
2018-11-29T12:23:04.178Z,12.85
2018-11-29T12:25:32.842Z,12.43
2018-11-29T12:28:01.502Z,11.20
2018-11-29T12:30:33.798Z,12.58
2018-11-29T12:33:03.630Z,12.60
2018-11-29T12:35:32.602Z,12.33
2018-11-29T12:38:01.308Z,12.20
2018-11-29T12:40:29.990Z,12.05
2018-11-29T12:42:58.659Z,13.28
2018-11-29T12:45:27.444Z,10.95
2018-11-29T12:47:56.118Z,12.13
2018-11-29T12:50:25.634Z,12.23
2018-11-29T12:52:54.358Z,12.58
2018-11-29T12:55:24.236Z,12.53
2018-11-29T12:58:04.568Z,13.72
2018-11-29T13:00:22.418Z,12.35
2018-11-29T13:02:52.158Z,11.73
2018-11-29T13:05:20.820Z,13.83
2018-11-29T13:07:49.654Z,13.32
2018-11-29T13:10:21.167Z,13.38
2018-11-29T13:12:49.865Z,10.38
2018-11-29T13:15:29.791Z,12.47
2018-11-29T13:17:59.393Z,12.73
2018-11-29T13:20:32.487Z,16.75
2018-11-29T13:22:56.738Z,12.58
2018-11-29T13:25:26.580Z,12.28
2018-11-29T13:27:55.242Z,12.82
2018-11-29T13:30:23.983Z,13.20
2018-11-29T13:32:55.716Z,16.32
2018-11-29T13:35:26.766Z,13.68
2018-11-29T13:37:57.800Z,16.80
2018-11-29T13:40:26.994Z,13.72
2018-11-29T13:42:55.777Z,12.55
2018-11-29T13:45:24.532Z,12.15
2018-11-29T13:47:53.103Z,11.40
2018-11-29T13:50:21.765Z,15.85
2018-11-29T13:52:50.457Z,14.53
2018-11-29T13:55:19.131Z,14.45
2018-11-29T13:57:49.931Z,12.65
2018-11-29T14:00:19.646Z,12.03
2018-11-29T14:02:49.679Z,12.18
2018-11-29T14:05:18.346Z,13.38
2018-11-29T14:07:47.033Z,11.45
2018-11-29T14:10:17.044Z,11.03
2018-11-29T14:12:46.576Z,11.18
2018-11-29T14:15:16.355Z,12.15
2018-11-29T14:17:45.125Z,10.38
2018-11-29T14:20:14.155Z,11.43
2018-11-29T14:22:42.843Z,10.93
2018-11-29T14:25:13.643Z,12.50
2018-11-29T14:27:43.380Z,12.90
2018-11-29T14:30:16.266Z,12.45
2018-11-29T14:32:44.967Z,13.13
2018-11-29T14:35:13.681Z,13.08
2018-11-29T14:37:42.433Z,11.12
2018-11-29T14:40:14.168Z,11.50
2018-11-29T14:42:42.839Z,9.88
2018-11-29T14:45:12.571Z,12.20
2018-11-29T14:47:41.249Z,10.78
2018-11-29T14:50:14.761Z,11.20
2018-11-29T14:52:43.446Z,9.58
2018-11-29T14:55:12.109Z,13.00
2018-11-29T14:57:40.774Z,8.93
2018-11-29T15:00:11.688Z,9.75
2018-11-29T15:02:40.734Z,10.95
2018-11-29T15:05:16.076Z,8.80
2018-11-29T15:07:44.763Z,11.35
2018-11-29T15:10:13.546Z,10.30
2018-11-29T15:12:42.229Z,9.88
2018-11-29T15:15:11.843Z,12.40
2018-11-29T15:17:41.353Z,10.45
2018-11-29T15:20:13.406Z,11.80
2018-11-29T15:22:42.146Z,9.48
2018-11-29T15:25:10.831Z,10.58
2018-11-29T15:27:39.494Z,8.78
2018-11-29T15:30:10.922Z,9.43
2018-11-29T15:32:39.595Z,9.40
2018-11-29T15:35:08.619Z,12.68
2018-11-29T15:37:37.286Z,12.45
2018-11-29T15:40:08.846Z,10.38
2018-11-29T15:42:37.656Z,11.00
2018-11-29T15:45:10.833Z,9.83
2018-11-29T15:47:48.934Z,10.10
2018-11-29T15:50:17.649Z,9.10
2018-11-29T15:52:46.396Z,8.93
2018-11-29T15:55:16.934Z,6.90
2018-11-29T15:57:46.611Z,9.50
2018-11-29T16:00:18.393Z,9.45
2018-11-29T16:02:47.875Z,9.50
2018-11-29T16:05:16.555Z,9.25
2018-11-29T16:07:45.237Z,8.80
2018-11-29T16:10:15.251Z,9.73
2018-11-29T16:12:43.931Z,9.73
2018-11-29T16:15:15.626Z,10.68
2018-11-29T16:17:44.900Z,7.87
2018-11-29T16:20:18.006Z,8.73
2018-11-29T16:22:46.680Z,8.13
2018-11-29T16:25:15.323Z,8.78
2018-11-29T16:27:44.026Z,9.75
2018-11-29T16:30:46.082Z,11.22
2018-11-29T16:33:17.708Z,7.75
2018-11-29T16:35:46.350Z,11.73
2018-11-29T16:38:15.031Z,11.38
2018-11-29T16:40:43.720Z,9.55
2018-11-29T16:43:12.358Z,7.35
2018-11-29T16:45:41.044Z,7.60
2018-11-29T16:48:09.714Z,6.70
2018-11-29T16:50:38.585Z,6.83
2018-11-29T16:53:07.474Z,9.68
2018-11-29T16:55:36.653Z,5.42
2018-11-29T16:58:07.379Z,9.03
2018-11-29T17:00:36.303Z,9.03
2018-11-29T17:03:04.978Z,6.03
2018-11-29T17:05:33.659Z,5.65
2018-11-29T17:08:02.593Z,5.80
2018-11-29T17:10:31.249Z,5.60
2018-11-29T17:13:02.251Z,7.20
2018-11-29T17:15:30.936Z,7.65
2018-11-29T17:17:59.590Z,7.62
2018-11-29T17:20:28.263Z,6.83
2018-11-29T17:22:56.986Z,5.97
2018-11-29T17:25:25.662Z,6.75
2018-11-29T17:27:54.317Z,5.28
2018-11-29T17:30:24.651Z,5.22
2018-11-29T17:32:54.422Z,5.35
2018-11-29T17:35:23.130Z,6.65
2018-11-29T17:37:52.478Z,6.92
2018-11-29T17:40:21.796Z,5.17
2018-11-29T17:42:51.595Z,6.05
2018-11-29T17:45:21.507Z,6.08
2018-11-29T17:47:51.438Z,5.15
2018-11-29T17:50:24.529Z,4.28
2018-11-29T17:52:53.278Z,3.30
2018-11-29T17:55:21.962Z,5.33
2018-11-29T17:57:50.630Z,5.67
2018-11-29T18:00:24.493Z,5.62
2018-11-29T18:02:53.296Z,4.05
2018-11-29T18:05:21.986Z,4.28
2018-11-29T18:07:50.741Z,7.78
2018-11-29T18:10:22.601Z,4.65
2018-11-29T18:12:56.713Z,3.77
2018-11-29T18:15:29.837Z,3.73
2018-11-29T18:17:58.507Z,5.45
2018-11-29T18:20:27.198Z,4.83
2018-11-29T18:22:55.858Z,4.12
2018-11-29T18:25:24.542Z,5.08
2018-11-29T18:27:53.328Z,5.25
2018-11-29T18:30:22.535Z,6.83
2018-11-29T18:32:51.209Z,5.08
2018-11-29T18:35:19.885Z,4.58
2018-11-29T18:37:48.571Z,3.47
2018-11-29T18:40:21.142Z,4.00
2018-11-29T18:42:53.221Z,6.90
2018-11-29T18:45:21.907Z,3.40
2018-11-29T18:47:51.299Z,3.60
2018-11-29T18:50:23.151Z,3.87
2018-11-29T18:52:51.950Z,2.77
2018-11-29T18:55:21.757Z,3.58
2018-11-29T18:57:50.617Z,2.80
2018-11-29T19:02:57.114Z,2.40
2018-11-29T19:05:23.377Z,2.55
2018-11-29T19:07:52.066Z,2.93
2018-11-29T19:10:21.147Z,3.87
2018-11-29T19:12:57.211Z,2.62
2018-11-29T19:15:25.902Z,3.92
2018-11-29T19:17:54.573Z,3.60
2018-11-29T19:20:23.365Z,2.70
2018-11-29T19:22:52.027Z,5.25
2018-11-29T19:25:20.862Z,2.42
2018-11-29T19:27:49.525Z,4.45
2018-11-29T19:30:26.397Z,3.83
2018-11-29T19:33:06.290Z,3.15
2018-11-29T19:35:35.042Z,3.08
2018-11-29T19:38:03.727Z,3.72
2018-11-29T19:40:32.439Z,3.70
2018-11-29T19:43:01.096Z,3.95
2018-11-29T19:45:29.769Z,4.47
2018-11-29T19:47:58.430Z,3.60
2018-11-29T19:50:27.102Z,2.40
2018-11-29T19:52:57.175Z,2.63
2018-11-29T19:55:28.014Z,5.33
2018-11-29T19:57:56.670Z,3.43
2018-11-29T20:00:25.381Z,3.57
2018-11-29T20:02:54.970Z,1.83
2018-11-29T20:05:23.642Z,4.77
2018-11-29T20:07:52.329Z,3.43
2018-11-29T20:10:21.001Z,3.23
2018-11-29T20:12:58.222Z,4.23
2018-11-29T20:15:32.381Z,3.90
2018-11-29T20:18:01.058Z,3.23
2018-11-29T20:20:29.815Z,4.47
2018-11-29T20:22:58.478Z,3.97
2018-11-29T20:25:27.372Z,3.65
2018-11-29T20:27:56.059Z,3.67
2018-11-29T20:30:24.777Z,3.67
2018-11-29T20:32:54.475Z,3.70
2018-11-29T20:35:23.281Z,3.35
2018-11-29T20:37:52.974Z,4.83
2018-11-29T20:40:23.711Z,4.95
2018-11-29T20:42:53.670Z,4.85
2018-11-29T20:45:24.870Z,4.25
2018-11-29T20:47:53.577Z,4.25
2018-11-29T20:50:23.553Z,7.07
2018-11-29T20:52:53.265Z,3.72
2018-11-29T20:55:23.673Z,4.10
2018-11-29T20:57:52.545Z,4.00
2018-11-29T21:00:21.218Z,4.93
2018-11-29T21:02:49.909Z,4.77
2018-11-29T21:05:19.651Z,5.28
2018-11-29T21:07:49.783Z,4.03
2018-11-29T21:10:20.594Z,3.87
2018-11-29T21:12:49.271Z,6.67
2018-11-29T21:15:18.159Z,3.80
2018-11-29T21:17:46.881Z,3.95
2018-11-29T21:20:16.471Z,3.77
2018-11-29T21:22:46.312Z,3.90
2018-11-29T21:25:17.438Z,3.87
2018-11-29T21:27:46.110Z,4.60
2018-11-29T21:30:15.637Z,3.17
2018-11-29T21:32:44.554Z,4.22
2018-11-29T21:35:16.358Z,3.08
2018-11-29T21:37:45.093Z,3.80
2018-11-29T21:40:15.473Z,4.00
2018-11-29T21:42:44.155Z,5.10
2018-11-29T21:45:12.819Z,3.58
2018-11-29T21:47:41.539Z,3.85
2018-11-29T21:50:10.181Z,4.03
2018-11-29T21:52:38.838Z,5.12
2018-11-29T21:55:08.001Z,6.10
2018-11-29T21:57:36.759Z,4.00
2018-11-29T22:00:11.553Z,3.15
2018-11-29T22:02:41.848Z,4.08
2018-11-29T22:05:10.396Z,3.98
2018-11-29T22:07:39.061Z,4.53
2018-11-29T22:10:08.026Z,4.92
2018-11-29T22:12:36.710Z,4.50
2018-11-29T22:15:07.510Z,4.53
2018-11-29T22:17:39.062Z,5.40
2018-11-29T22:20:07.735Z,4.80
2018-11-29T22:22:36.440Z,5.50
2018-11-29T22:25:05.969Z,4.22
2018-11-29T22:27:34.608Z,5.08
2018-11-29T22:30:03.258Z,4.53
2018-11-29T22:32:31.934Z,5.43
2018-11-29T22:35:00.594Z,4.70
2018-11-29T22:37:29.277Z,4.83
2018-11-29T22:39:57.943Z,4.78
2018-11-29T22:42:26.606Z,4.35
2018-11-29T22:44:55.279Z,11.20
2018-11-29T22:47:23.951Z,4.77
2018-11-29T22:49:52.613Z,4.13
2018-11-29T22:52:21.274Z,4.30
2018-11-29T22:54:49.934Z,4.40
2018-11-29T22:57:18.636Z,4.90
2018-11-29T22:59:47.299Z,3.97
2018-11-29T23:02:15.959Z,5.20
2018-11-29T23:04:44.612Z,4.03
2018-11-29T23:07:13.321Z,4.73
2018-11-29T23:09:41.931Z,5.07
2018-11-29T23:12:10.596Z,5.60
2018-11-29T23:14:39.250Z,5.10
2018-11-29T23:17:07.932Z,4.80
2018-11-29T23:19:36.589Z,5.50
2018-11-29T23:22:05.274Z,5.80
2018-11-29T23:24:34.000Z,5.78
2018-11-29T23:27:02.839Z,5.40
2018-11-29T23:29:31.558Z,5.62
2018-11-29T23:32:00.220Z,5.70
2018-11-29T23:34:28.895Z,6.40
2018-11-29T23:36:57.575Z,4.85
2018-11-29T23:39:26.244Z,5.40
2018-11-29T23:41:54.945Z,6.05
2018-11-29T23:44:23.610Z,6.70
2018-11-29T23:46:52.291Z,6.92
2018-11-29T23:49:20.983Z,5.70
2018-11-29T23:51:49.660Z,6.28
2018-11-29T23:54:18.326Z,6.40
2018-11-29T23:56:46.994Z,6.78
2018-11-29T23:59:15.659Z,7.05
